sensor_id;sensor_type;location;lat;lon;timestamp;P1;durP1;ratioP1;P2;durP2;ratioP2
2416;SDS011;1219;48.736;9.330;2023-07-29T00:01:44;3.90;;;3.43;;
2416;SDS011;1219;48.736;9.330;2023-07-29T00:04:11;3.47;;;3.17;;
2416;SDS011;1219;48.736;9.330;2023-07-29T00:06:37;3.40;;;3.10;;
2416;SDS011;1219;48.736;9.330;2023-07-29T00:09:03;3.67;;;3.07;;
2416;SDS011;1219;48.736;9.330;2023-07-29T00:11:29;3.73;;;3.20;;
2416;SDS011;1219;48.736;9.330;2023-07-29T00:13:57;4.17;;;2.87;;
2416;SDS011;1219;48.736;9.330;2023-07-29T00:16:23;4.77;;;3.10;;
2416;SDS011;1219;48.736;9.330;2023-07-29T00:18:49;6.40;;;3.60;;
2416;SDS011;1219;48.736;9.330;2023-07-29T00:21:15;5.80;;;3.50;;
2416;SDS011;1219;48.736;9.330;2023-07-29T00:23:41;4.30;;;3.17;;
2416;SDS011;1219;48.736;9.330;2023-07-29T00:26:07;4.73;;;3.03;;
2416;SDS011;1219;48.736;9.330;2023-07-29T00:28:33;5.73;;;3.30;;
2416;SDS011;1219;48.736;9.330;2023-07-29T00:30:59;3.13;;;2.83;;
2416;SDS011;1219;48.736;9.330;2023-07-29T00:33:25;3.50;;;3.20;;
2416;SDS011;1219;48.736;9.330;2023-07-29T00:35:51;4.07;;;3.77;;
2416;SDS011;1219;48.736;9.330;2023-07-29T00:38:16;8.57;;;3.73;;
2416;SDS011;1219;48.736;9.330;2023-07-29T00:40:42;6.40;;;3.87;;
2416;SDS011;1219;48.736;9.330;2023-07-29T00:43:08;4.30;;;3.60;;
2416;SDS011;1219;48.736;9.330;2023-07-29T00:45:34;9.43;;;3.90;;
2416;SDS011;1219;48.736;9.330;2023-07-29T00:48:01;7.30;;;3.47;;
2416;SDS011;1219;48.736;9.330;2023-07-29T00:50:27;5.80;;;3.87;;
2416;SDS011;1219;48.736;9.330;2023-07-29T00:52:54;3.67;;;3.37;;
2416;SDS011;1219;48.736;9.330;2023-07-29T00:55:20;4.03;;;3.37;;
2416;SDS011;1219;48.736;9.330;2023-07-29T00:57:46;4.10;;;3.47;;
2416;SDS011;1219;48.736;9.330;2023-07-29T01:00:14;3.63;;;3.40;;
2416;SDS011;1219;48.736;9.330;2023-07-29T01:02:44;4.40;;;3.30;;
2416;SDS011;1219;48.736;9.330;2023-07-29T01:05:11;4.70;;;3.93;;
2416;SDS011;1219;48.736;9.330;2023-07-29T01:07:39;3.60;;;3.30;;
2416;SDS011;1219;48.736;9.330;2023-07-29T01:13:13;4.87;;;3.60;;
2416;SDS011;1219;48.736;9.330;2023-07-29T01:15:51;5.13;;;3.43;;
2416;SDS011;1219;48.736;9.330;2023-07-29T01:18:19;4.00;;;3.23;;
2416;SDS011;1219;48.736;9.330;2023-07-29T01:20:46;6.90;;;3.30;;
2416;SDS011;1219;48.736;9.330;2023-07-29T01:23:13;5.93;;;3.83;;
2416;SDS011;1219;48.736;9.330;2023-07-29T01:25:39;10.10;;;3.40;;
2416;SDS011;1219;48.736;9.330;2023-07-29T01:28:05;4.03;;;3.30;;
2416;SDS011;1219;48.736;9.330;2023-07-29T01:30:33;6.43;;;3.10;;
2416;SDS011;1219;48.736;9.330;2023-07-29T01:33:05;3.00;;;2.80;;
2416;SDS011;1219;48.736;9.330;2023-07-29T01:35:37;3.67;;;3.13;;
2416;SDS011;1219;48.736;9.330;2023-07-29T01:38:07;3.73;;;3.40;;
2416;SDS011;1219;48.736;9.330;2023-07-29T01:40:35;4.17;;;3.43;;
2416;SDS011;1219;48.736;9.330;2023-07-29T01:43:01;3.70;;;3.40;;
2416;SDS011;1219;48.736;9.330;2023-07-29T01:45:27;5.10;;;3.57;;
2416;SDS011;1219;48.736;9.330;2023-07-29T01:47:56;4.77;;;3.70;;
2416;SDS011;1219;48.736;9.330;2023-07-29T01:50:22;4.63;;;3.93;;
2416;SDS011;1219;48.736;9.330;2023-07-29T01:52:48;4.00;;;3.53;;
2416;SDS011;1219;48.736;9.330;2023-07-29T01:55:14;4.37;;;3.30;;
2416;SDS011;1219;48.736;9.330;2023-07-29T01:57:40;4.47;;;3.30;;
2416;SDS011;1219;48.736;9.330;2023-07-29T02:00:07;4.27;;;3.20;;
2416;SDS011;1219;48.736;9.330;2023-07-29T02:02:33;4.23;;;2.93;;
2416;SDS011;1219;48.736;9.330;2023-07-29T02:04:59;3.73;;;3.37;;
2416;SDS011;1219;48.736;9.330;2023-07-29T02:07:25;3.13;;;2.83;;
2416;SDS011;1219;48.736;9.330;2023-07-29T02:09:51;3.77;;;3.37;;
2416;SDS011;1219;48.736;9.330;2023-07-29T02:12:18;3.53;;;2.90;;
2416;SDS011;1219;48.736;9.330;2023-07-29T02:14:44;3.37;;;2.73;;
2416;SDS011;1219;48.736;9.330;2023-07-29T02:17:10;5.77;;;3.30;;
2416;SDS011;1219;48.736;9.330;2023-07-29T02:19:36;7.27;;;4.40;;
2416;SDS011;1219;48.736;9.330;2023-07-29T02:22:02;3.20;;;3.00;;
2416;SDS011;1219;48.736;9.330;2023-07-29T02:24:28;4.30;;;3.07;;
2416;SDS011;1219;48.736;9.330;2023-07-29T02:26:54;3.30;;;3.00;;
2416;SDS011;1219;48.736;9.330;2023-07-29T02:29:20;8.87;;;3.13;;
2416;SDS011;1219;48.736;9.330;2023-07-29T02:31:46;3.67;;;3.37;;
2416;SDS011;1219;48.736;9.330;2023-07-29T02:34:12;6.10;;;3.63;;
2416;SDS011;1219;48.736;9.330;2023-07-29T02:36:38;3.80;;;2.70;;
2416;SDS011;1219;48.736;9.330;2023-07-29T02:39:04;4.70;;;3.50;;
2416;SDS011;1219;48.736;9.330;2023-07-29T02:41:31;3.80;;;2.90;;
2416;SDS011;1219;48.736;9.330;2023-07-29T02:43:57;3.30;;;3.00;;
2416;SDS011;1219;48.736;9.330;2023-07-29T02:46:23;5.73;;;3.43;;
2416;SDS011;1219;48.736;9.330;2023-07-29T02:48:48;3.57;;;3.27;;
2416;SDS011;1219;48.736;9.330;2023-07-29T02:51:14;5.27;;;3.73;;
2416;SDS011;1219;48.736;9.330;2023-07-29T02:53:40;3.93;;;3.57;;
2416;SDS011;1219;48.736;9.330;2023-07-29T02:56:06;3.67;;;3.27;;
2416;SDS011;1219;48.736;9.330;2023-07-29T02:58:34;3.70;;;3.40;;
2416;SDS011;1219;48.736;9.330;2023-07-29T03:01:01;4.87;;;3.57;;
2416;SDS011;1219;48.736;9.330;2023-07-29T03:03:27;5.13;;;3.10;;
2416;SDS011;1219;48.736;9.330;2023-07-29T03:06:13;3.47;;;3.17;;
2416;SDS011;1219;48.736;9.330;2023-07-29T03:08:39;4.43;;;3.20;;
2416;SDS011;1219;48.736;9.330;2023-07-29T03:11:07;3.93;;;3.63;;
2416;SDS011;1219;48.736;9.330;2023-07-29T03:13:33;3.97;;;3.30;;
2416;SDS011;1219;48.736;9.330;2023-07-29T03:18:35;2.90;;;2.70;;
2416;SDS011;1219;48.736;9.330;2023-07-29T03:21:01;3.40;;;2.90;;
2416;SDS011;1219;48.736;9.330;2023-07-29T03:23:28;2.70;;;2.50;;
2416;SDS011;1219;48.736;9.330;2023-07-29T03:25:58;6.17;;;4.70;;
2416;SDS011;1219;48.736;9.330;2023-07-29T03:28:28;3.70;;;3.40;;
2416;SDS011;1219;48.736;9.330;2023-07-29T03:30:54;3.50;;;3.20;;
2416;SDS011;1219;48.736;9.330;2023-07-29T03:33:20;3.70;;;3.30;;
2416;SDS011;1219;48.736;9.330;2023-07-29T03:35:46;3.87;;;3.20;;
2416;SDS011;1219;48.736;9.330;2023-07-29T03:38:12;3.33;;;3.13;;
2416;SDS011;1219;48.736;9.330;2023-07-29T03:40:39;6.90;;;4.50;;
2416;SDS011;1219;48.736;9.330;2023-07-29T03:43:05;7.17;;;3.37;;
2416;SDS011;1219;48.736;9.330;2023-07-29T03:45:32;3.00;;;2.70;;
2416;SDS011;1219;48.736;9.330;2023-07-29T03:47:58;3.47;;;3.00;;
2416;SDS011;1219;48.736;9.330;2023-07-29T03:50:24;3.83;;;3.53;;
2416;SDS011;1219;48.736;9.330;2023-07-29T03:52:50;8.20;;;3.43;;
2416;SDS011;1219;48.736;9.330;2023-07-29T03:55:16;4.83;;;3.87;;
2416;SDS011;1219;48.736;9.330;2023-07-29T03:57:42;3.90;;;3.40;;
2416;SDS011;1219;48.736;9.330;2023-07-29T04:00:08;9.73;;;3.80;;
2416;SDS011;1219;48.736;9.330;2023-07-29T04:02:34;3.67;;;3.37;;
2416;SDS011;1219;48.736;9.330;2023-07-29T04:05:04;4.10;;;3.70;;
2416;SDS011;1219;48.736;9.330;2023-07-29T04:07:30;4.10;;;3.70;;
2416;SDS011;1219;48.736;9.330;2023-07-29T04:09:56;5.80;;;3.70;;
2416;SDS011;1219;48.736;9.330;2023-07-29T04:12:22;3.60;;;3.30;;
2416;SDS011;1219;48.736;9.330;2023-07-29T04:14:48;3.53;;;3.23;;
2416;SDS011;1219;48.736;9.330;2023-07-29T04:17:14;4.90;;;3.40;;
2416;SDS011;1219;48.736;9.330;2023-07-29T04:19:40;3.93;;;3.50;;
2416;SDS011;1219;48.736;9.330;2023-07-29T04:22:06;4.97;;;3.70;;
2416;SDS011;1219;48.736;9.330;2023-07-29T04:24:32;3.50;;;3.20;;
2416;SDS011;1219;48.736;9.330;2023-07-29T04:26:58;4.13;;;2.73;;
2416;SDS011;1219;48.736;9.330;2023-07-29T04:29:24;3.20;;;3.00;;
2416;SDS011;1219;48.736;9.330;2023-07-29T04:31:50;4.50;;;3.40;;
2416;SDS011;1219;48.736;9.330;2023-07-29T04:34:17;4.43;;;3.30;;
2416;SDS011;1219;48.736;9.330;2023-07-29T04:36:43;3.67;;;3.00;;
2416;SDS011;1219;48.736;9.330;2023-07-29T04:39:09;3.70;;;3.17;;
2416;SDS011;1219;48.736;9.330;2023-07-29T04:41:35;6.37;;;3.50;;
2416;SDS011;1219;48.736;9.330;2023-07-29T04:44:01;4.27;;;3.30;;
2416;SDS011;1219;48.736;9.330;2023-07-29T04:46:27;6.80;;;3.47;;
2416;SDS011;1219;48.736;9.330;2023-07-29T04:48:53;3.80;;;3.40;;
2416;SDS011;1219;48.736;9.330;2023-07-29T04:51:19;6.47;;;3.27;;
2416;SDS011;1219;48.736;9.330;2023-07-29T04:53:45;4.93;;;3.70;;
2416;SDS011;1219;48.736;9.330;2023-07-29T04:56:11;6.80;;;3.80;;
2416;SDS011;1219;48.736;9.330;2023-07-29T04:58:37;5.90;;;3.53;;
2416;SDS011;1219;48.736;9.330;2023-07-29T05:01:03;5.07;;;3.60;;
2416;SDS011;1219;48.736;9.330;2023-07-29T05:03:29;4.90;;;4.30;;
2416;SDS011;1219;48.736;9.330;2023-07-29T05:05:55;3.00;;;2.70;;
2416;SDS011;1219;48.736;9.330;2023-07-29T05:08:22;6.10;;;3.00;;
2416;SDS011;1219;48.736;9.330;2023-07-29T05:10:49;4.30;;;3.33;;
2416;SDS011;1219;48.736;9.330;2023-07-29T05:13:15;4.10;;;2.80;;
2416;SDS011;1219;48.736;9.330;2023-07-29T05:15:42;6.50;;;3.90;;
2416;SDS011;1219;48.736;9.330;2023-07-29T05:18:08;4.07;;;3.27;;
2416;SDS011;1219;48.736;9.330;2023-07-29T05:20:33;4.47;;;3.30;;
2416;SDS011;1219;48.736;9.330;2023-07-29T05:22:59;7.13;;;3.00;;
2416;SDS011;1219;48.736;9.330;2023-07-29T05:25:26;3.70;;;3.37;;
2416;SDS011;1219;48.736;9.330;2023-07-29T05:27:52;3.23;;;2.93;;
2416;SDS011;1219;48.736;9.330;2023-07-29T05:30:18;3.77;;;3.03;;
2416;SDS011;1219;48.736;9.330;2023-07-29T05:32:44;3.33;;;3.03;;
2416;SDS011;1219;48.736;9.330;2023-07-29T05:35:10;3.60;;;3.30;;
2416;SDS011;1219;48.736;9.330;2023-07-29T05:37:39;4.87;;;3.60;;
2416;SDS011;1219;48.736;9.330;2023-07-29T05:40:05;4.27;;;3.57;;
2416;SDS011;1219;48.736;9.330;2023-07-29T05:42:32;6.60;;;3.43;;
2416;SDS011;1219;48.736;9.330;2023-07-29T05:44:58;4.97;;;3.77;;
2416;SDS011;1219;48.736;9.330;2023-07-29T05:47:24;9.33;;;4.03;;
2416;SDS011;1219;48.736;9.330;2023-07-29T05:49:50;4.97;;;3.90;;
2416;SDS011;1219;48.736;9.330;2023-07-29T05:52:16;4.20;;;3.73;;
2416;SDS011;1219;48.736;9.330;2023-07-29T05:54:42;4.20;;;3.33;;
2416;SDS011;1219;48.736;9.330;2023-07-29T05:57:11;3.30;;;2.93;;
2416;SDS011;1219;48.736;9.330;2023-07-29T05:59:37;4.00;;;3.10;;
2416;SDS011;1219;48.736;9.330;2023-07-29T06:02:04;3.30;;;3.00;;
2416;SDS011;1219;48.736;9.330;2023-07-29T06:04:30;4.50;;;2.47;;
2416;SDS011;1219;48.736;9.330;2023-07-29T06:06:56;3.13;;;2.33;;
2416;SDS011;1219;48.736;9.330;2023-07-29T06:09:22;2.77;;;2.40;;
2416;SDS011;1219;48.736;9.330;2023-07-29T06:11:50;4.60;;;2.83;;
2416;SDS011;1219;48.736;9.330;2023-07-29T06:14:16;3.17;;;2.50;;
2416;SDS011;1219;48.736;9.330;2023-07-29T06:16:42;3.80;;;3.13;;
2416;SDS011;1219;48.736;9.330;2023-07-29T06:19:08;4.70;;;2.63;;
2416;SDS011;1219;48.736;9.330;2023-07-29T06:21:34;4.30;;;3.60;;
2416;SDS011;1219;48.736;9.330;2023-07-29T06:24:01;3.50;;;3.03;;
2416;SDS011;1219;48.736;9.330;2023-07-29T06:26:27;5.00;;;3.60;;
2416;SDS011;1219;48.736;9.330;2023-07-29T06:28:53;3.57;;;3.27;;
2416;SDS011;1219;48.736;9.330;2023-07-29T06:31:19;3.57;;;2.73;;
2416;SDS011;1219;48.736;9.330;2023-07-29T06:33:45;4.00;;;3.60;;
2416;SDS011;1219;48.736;9.330;2023-07-29T06:36:11;2.70;;;2.50;;
2416;SDS011;1219;48.736;9.330;2023-07-29T06:38:37;4.97;;;3.13;;
2416;SDS011;1219;48.736;9.330;2023-07-29T06:41:06;5.47;;;2.73;;
2416;SDS011;1219;48.736;9.330;2023-07-29T06:43:32;2.50;;;2.30;;
2416;SDS011;1219;48.736;9.330;2023-07-29T06:45:58;2.87;;;2.53;;
2416;SDS011;1219;48.736;9.330;2023-07-29T06:48:24;2.50;;;2.30;;
2416;SDS011;1219;48.736;9.330;2023-07-29T06:50:50;2.87;;;2.67;;
2416;SDS011;1219;48.736;9.330;2023-07-29T06:53:17;3.57;;;2.33;;
2416;SDS011;1219;48.736;9.330;2023-07-29T06:55:43;8.40;;;3.23;;
2416;SDS011;1219;48.736;9.330;2023-07-29T06:58:10;2.50;;;2.30;;
2416;SDS011;1219;48.736;9.330;2023-07-29T07:00:36;5.53;;;2.20;;
2416;SDS011;1219;48.736;9.330;2023-07-29T07:03:02;3.00;;;2.00;;
2416;SDS011;1219;48.736;9.330;2023-07-29T07:05:28;2.93;;;2.73;;
2416;SDS011;1219;48.736;9.330;2023-07-29T07:07:54;2.53;;;2.33;;
2416;SDS011;1219;48.736;9.330;2023-07-29T07:10:20;4.43;;;2.70;;
2416;SDS011;1219;48.736;9.330;2023-07-29T07:12:46;3.10;;;2.53;;
2416;SDS011;1219;48.736;9.330;2023-07-29T07:15:12;10.67;;;3.43;;
2416;SDS011;1219;48.736;9.330;2023-07-29T07:17:38;2.60;;;2.40;;
2416;SDS011;1219;48.736;9.330;2023-07-29T07:20:04;3.20;;;2.57;;
2416;SDS011;1219;48.736;9.330;2023-07-29T07:22:31;11.43;;;2.67;;
2416;SDS011;1219;48.736;9.330;2023-07-29T07:24:56;5.03;;;3.00;;
2416;SDS011;1219;48.736;9.330;2023-07-29T07:27:22;3.17;;;2.87;;
2416;SDS011;1219;48.736;9.330;2023-07-29T07:29:48;4.53;;;2.40;;
2416;SDS011;1219;48.736;9.330;2023-07-29T07:32:15;4.03;;;1.80;;
2416;SDS011;1219;48.736;9.330;2023-07-29T07:34:40;2.80;;;1.93;;
2416;SDS011;1219;48.736;9.330;2023-07-29T07:37:06;2.33;;;1.70;;
2416;SDS011;1219;48.736;9.330;2023-07-29T07:39:32;1.70;;;1.60;;
2416;SDS011;1219;48.736;9.330;2023-07-29T07:41:58;2.10;;;1.90;;
2416;SDS011;1219;48.736;9.330;2023-07-29T07:44:24;2.37;;;2.17;;
2416;SDS011;1219;48.736;9.330;2023-07-29T07:46:51;2.30;;;2.10;;
2416;SDS011;1219;48.736;9.330;2023-07-29T07:49:18;1.73;;;1.63;;
2416;SDS011;1219;48.736;9.330;2023-07-29T07:51:44;3.53;;;1.70;;
2416;SDS011;1219;48.736;9.330;2023-07-29T07:54:10;1.80;;;1.50;;
2416;SDS011;1219;48.736;9.330;2023-07-29T07:56:36;2.67;;;1.50;;
2416;SDS011;1219;48.736;9.330;2023-07-29T07:59:02;1.60;;;1.50;;
2416;SDS011;1219;48.736;9.330;2023-07-29T08:01:28;1.83;;;1.30;;
2416;SDS011;1219;48.736;9.330;2023-07-29T08:03:59;1.40;;;1.30;;
2416;SDS011;1219;48.736;9.330;2023-07-29T08:06:25;2.27;;;1.30;;
2416;SDS011;1219;48.736;9.330;2023-07-29T08:08:51;2.13;;;1.30;;
2416;SDS011;1219;48.736;9.330;2023-07-29T08:11:17;2.43;;;1.30;;
2416;SDS011;1219;48.736;9.330;2023-07-29T08:13:43;3.03;;;1.60;;
2416;SDS011;1219;48.736;9.330;2023-07-29T08:16:09;1.50;;;1.40;;
2416;SDS011;1219;48.736;9.330;2023-07-29T08:18:35;1.87;;;1.63;;
2416;SDS011;1219;48.736;9.330;2023-07-29T08:21:01;1.63;;;1.53;;
2416;SDS011;1219;48.736;9.330;2023-07-29T08:23:30;1.40;;;1.30;;
2416;SDS011;1219;48.736;9.330;2023-07-29T08:25:57;2.33;;;1.83;;
2416;SDS011;1219;48.736;9.330;2023-07-29T08:28:27;2.57;;;2.00;;
2416;SDS011;1219;48.736;9.330;2023-07-29T08:30:53;2.00;;;1.80;;
2416;SDS011;1219;48.736;9.330;2023-07-29T08:33:19;2.20;;;1.90;;
2416;SDS011;1219;48.736;9.330;2023-07-29T08:35:45;1.70;;;1.60;;
2416;SDS011;1219;48.736;9.330;2023-07-29T08:38:11;5.80;;;2.17;;
2416;SDS011;1219;48.736;9.330;2023-07-29T08:40:37;2.30;;;1.87;;
2416;SDS011;1219;48.736;9.330;2023-07-29T08:43:07;1.93;;;1.77;;
2416;SDS011;1219;48.736;9.330;2023-07-29T08:45:36;3.33;;;2.13;;
2416;SDS011;1219;48.736;9.330;2023-07-29T08:48:04;2.17;;;1.90;;
2416;SDS011;1219;48.736;9.330;2023-07-29T08:50:32;1.90;;;1.80;;
2416;SDS011;1219;48.736;9.330;2023-07-29T08:52:59;1.87;;;1.70;;
2416;SDS011;1219;48.736;9.330;2023-07-29T08:55:26;3.10;;;1.77;;
2416;SDS011;1219;48.736;9.330;2023-07-29T08:57:52;2.77;;;1.83;;
2416;SDS011;1219;48.736;9.330;2023-07-29T09:00:19;2.17;;;1.67;;
2416;SDS011;1219;48.736;9.330;2023-07-29T09:02:45;1.73;;;1.63;;
2416;SDS011;1219;48.736;9.330;2023-07-29T09:05:11;3.50;;;1.90;;
2416;SDS011;1219;48.736;9.330;2023-07-29T09:07:37;1.90;;;1.80;;
2416;SDS011;1219;48.736;9.330;2023-07-29T09:10:04;2.73;;;1.90;;
2416;SDS011;1219;48.736;9.330;2023-07-29T09:12:30;2.20;;;2.00;;
2416;SDS011;1219;48.736;9.330;2023-07-29T09:14:56;2.03;;;1.90;;
2416;SDS011;1219;48.736;9.330;2023-07-29T09:17:22;2.57;;;1.80;;
2416;SDS011;1219;48.736;9.330;2023-07-29T09:19:48;2.10;;;1.90;;
2416;SDS011;1219;48.736;9.330;2023-07-29T09:22:18;2.30;;;2.10;;
2416;SDS011;1219;48.736;9.330;2023-07-29T09:24:45;2.50;;;1.73;;
2416;SDS011;1219;48.736;9.330;2023-07-29T09:27:22;5.80;;;2.00;;
2416;SDS011;1219;48.736;9.330;2023-07-29T09:29:49;1.70;;;1.60;;
2416;SDS011;1219;48.736;9.330;2023-07-29T09:32:17;2.20;;;1.63;;
2416;SDS011;1219;48.736;9.330;2023-07-29T09:34:45;1.80;;;1.70;;
2416;SDS011;1219;48.736;9.330;2023-07-29T09:37:15;1.90;;;1.47;;
2416;SDS011;1219;48.736;9.330;2023-07-29T09:39:43;2.20;;;1.43;;
2416;SDS011;1219;48.736;9.330;2023-07-29T09:42:11;1.97;;;1.63;;
2416;SDS011;1219;48.736;9.330;2023-07-29T09:44:37;1.40;;;1.30;;
2416;SDS011;1219;48.736;9.330;2023-07-29T09:47:03;3.50;;;1.60;;
2416;SDS011;1219;48.736;9.330;2023-07-29T09:49:29;1.50;;;1.40;;
2416;SDS011;1219;48.736;9.330;2023-07-29T09:52:01;3.30;;;1.60;;
2416;SDS011;1219;48.736;9.330;2023-07-29T09:54:29;1.37;;;1.27;;
2416;SDS011;1219;48.736;9.330;2023-07-29T09:56:56;1.80;;;1.70;;
2416;SDS011;1219;48.736;9.330;2023-07-29T09:59:23;1.83;;;1.20;;
2416;SDS011;1219;48.736;9.330;2023-07-29T10:01:49;1.50;;;1.40;;
2416;SDS011;1219;48.736;9.330;2023-07-29T10:04:15;2.10;;;1.40;;
2416;SDS011;1219;48.736;9.330;2023-07-29T10:06:42;2.77;;;1.60;;
2416;SDS011;1219;48.736;9.330;2023-07-29T10:09:08;2.07;;;1.43;;
2416;SDS011;1219;48.736;9.330;2023-07-29T10:11:36;1.93;;;1.53;;
2416;SDS011;1219;48.736;9.330;2023-07-29T10:14:03;2.10;;;1.90;;
2416;SDS011;1219;48.736;9.330;2023-07-29T10:16:29;1.40;;;1.30;;
2416;SDS011;1219;48.736;9.330;2023-07-29T10:18:55;1.50;;;1.40;;
2416;SDS011;1219;48.736;9.330;2023-07-29T10:21:22;4.30;;;1.80;;
2416;SDS011;1219;48.736;9.330;2023-07-29T10:23:48;3.17;;;1.67;;
2416;SDS011;1219;48.736;9.330;2023-07-29T10:26:16;1.50;;;1.40;;
2416;SDS011;1219;48.736;9.330;2023-07-29T10:28:44;1.30;;;1.20;;
2416;SDS011;1219;48.736;9.330;2023-07-29T10:31:12;2.20;;;1.50;;
2416;SDS011;1219;48.736;9.330;2023-07-29T10:33:38;2.53;;;1.80;;
2416;SDS011;1219;48.736;9.330;2023-07-29T10:36:05;1.40;;;1.30;;
2416;SDS011;1219;48.736;9.330;2023-07-29T10:38:31;1.77;;;1.60;;
2416;SDS011;1219;48.736;9.330;2023-07-29T10:40:57;1.47;;;1.37;;
2416;SDS011;1219;48.736;9.330;2023-07-29T10:43:27;1.80;;;1.70;;
2416;SDS011;1219;48.736;9.330;2023-07-29T10:45:54;2.43;;;1.60;;
2416;SDS011;1219;48.736;9.330;2023-07-29T10:53:46;1.67;;;1.57;;
2416;SDS011;1219;48.736;9.330;2023-07-29T10:56:12;1.40;;;1.30;;
2416;SDS011;1219;48.736;9.330;2023-07-29T10:58:38;4.10;;;1.70;;
2416;SDS011;1219;48.736;9.330;2023-07-29T11:01:12;1.40;;;1.30;;
2416;SDS011;1219;48.736;9.330;2023-07-29T11:03:38;2.17;;;1.60;;
2416;SDS011;1219;48.736;9.330;2023-07-29T11:06:04;1.63;;;1.53;;
2416;SDS011;1219;48.736;9.330;2023-07-29T11:08:30;1.67;;;1.57;;
2416;SDS011;1219;48.736;9.330;2023-07-29T11:11:06;1.60;;;1.50;;
2416;SDS011;1219;48.736;9.330;2023-07-29T11:13:36;1.73;;;1.40;;
2416;SDS011;1219;48.736;9.330;2023-07-29T11:16:03;1.63;;;1.53;;
2416;SDS011;1219;48.736;9.330;2023-07-29T11:18:31;2.30;;;1.50;;
2416;SDS011;1219;48.736;9.330;2023-07-29T11:20:58;2.47;;;1.37;;
2416;SDS011;1219;48.736;9.330;2023-07-29T11:23:31;2.13;;;1.57;;
2416;SDS011;1219;48.736;9.330;2023-07-29T11:25:57;1.40;;;1.30;;
2416;SDS011;1219;48.736;9.330;2023-07-29T11:28:25;1.40;;;1.30;;
2416;SDS011;1219;48.736;9.330;2023-07-29T11:30:51;1.40;;;1.30;;
2416;SDS011;1219;48.736;9.330;2023-07-29T11:33:21;1.87;;;1.43;;
2416;SDS011;1219;48.736;9.330;2023-07-29T11:35:47;1.60;;;1.50;;
2416;SDS011;1219;48.736;9.330;2023-07-29T11:38:16;1.40;;;1.13;;
2416;SDS011;1219;48.736;9.330;2023-07-29T11:40:43;1.50;;;1.40;;
2416;SDS011;1219;48.736;9.330;2023-07-29T11:43:09;1.57;;;1.47;;
2416;SDS011;1219;48.736;9.330;2023-07-29T11:45:44;1.63;;;1.53;;
2416;SDS011;1219;48.736;9.330;2023-07-29T11:48:10;1.70;;;1.50;;
2416;SDS011;1219;48.736;9.330;2023-07-29T11:50:36;2.00;;;1.50;;
2416;SDS011;1219;48.736;9.330;2023-07-29T11:53:02;2.53;;;1.30;;
2416;SDS011;1219;48.736;9.330;2023-07-29T11:55:33;1.30;;;1.20;;
2416;SDS011;1219;48.736;9.330;2023-07-29T11:58:02;1.50;;;1.40;;
2416;SDS011;1219;48.736;9.330;2023-07-29T12:00:28;1.43;;;1.33;;
2416;SDS011;1219;48.736;9.330;2023-07-29T12:02:54;1.83;;;1.43;;
2416;SDS011;1219;48.736;9.330;2023-07-29T12:05:21;1.60;;;1.50;;
2416;SDS011;1219;48.736;9.330;2023-07-29T12:07:48;1.60;;;1.50;;
2416;SDS011;1219;48.736;9.330;2023-07-29T12:10:14;2.37;;;1.50;;
2416;SDS011;1219;48.736;9.330;2023-07-29T12:12:46;1.60;;;1.50;;
2416;SDS011;1219;48.736;9.330;2023-07-29T12:15:13;1.47;;;1.37;;
2416;SDS011;1219;48.736;9.330;2023-07-29T12:17:39;1.60;;;1.40;;
2416;SDS011;1219;48.736;9.330;2023-07-29T12:20:07;1.40;;;1.30;;
2416;SDS011;1219;48.736;9.330;2023-07-29T12:22:33;2.00;;;1.50;;
2416;SDS011;1219;48.736;9.330;2023-07-29T12:24:59;1.67;;;1.57;;
2416;SDS011;1219;48.736;9.330;2023-07-29T12:27:26;1.57;;;1.47;;
2416;SDS011;1219;48.736;9.330;2023-07-29T12:29:52;1.90;;;1.80;;
2416;SDS011;1219;48.736;9.330;2023-07-29T12:32:19;1.60;;;1.50;;
2416;SDS011;1219;48.736;9.330;2023-07-29T12:34:45;1.73;;;1.63;;
2416;SDS011;1219;48.736;9.330;2023-07-29T12:37:11;1.57;;;1.47;;
2416;SDS011;1219;48.736;9.330;2023-07-29T12:39:39;1.30;;;1.20;;
2416;SDS011;1219;48.736;9.330;2023-07-29T12:42:07;1.60;;;1.40;;
2416;SDS011;1219;48.736;9.330;2023-07-29T12:44:33;1.50;;;1.40;;
2416;SDS011;1219;48.736;9.330;2023-07-29T12:47:03;1.63;;;1.50;;
2416;SDS011;1219;48.736;9.330;2023-07-29T12:49:29;2.23;;;1.40;;
2416;SDS011;1219;48.736;9.330;2023-07-29T12:51:58;2.17;;;1.50;;
2416;SDS011;1219;48.736;9.330;2023-07-29T12:54:25;1.60;;;1.50;;
2416;SDS011;1219;48.736;9.330;2023-07-29T12:56:52;1.33;;;1.23;;
2416;SDS011;1219;48.736;9.330;2023-07-29T12:59:18;3.93;;;1.50;;
2416;SDS011;1219;48.736;9.330;2023-07-29T13:01:44;1.43;;;1.33;;
2416;SDS011;1219;48.736;9.330;2023-07-29T13:04:10;1.67;;;1.57;;
2416;SDS011;1219;48.736;9.330;2023-07-29T13:06:37;1.50;;;1.40;;
2416;SDS011;1219;48.736;9.330;2023-07-29T13:09:03;1.87;;;1.77;;
2416;SDS011;1219;48.736;9.330;2023-07-29T13:11:30;2.37;;;1.70;;
2416;SDS011;1219;48.736;9.330;2023-07-29T13:13:57;3.47;;;1.90;;
2416;SDS011;1219;48.736;9.330;2023-07-29T13:16:23;2.60;;;1.63;;
2416;SDS011;1219;48.736;9.330;2023-07-29T13:18:49;1.90;;;1.80;;
2416;SDS011;1219;48.736;9.330;2023-07-29T13:21:15;1.93;;;1.60;;
2416;SDS011;1219;48.736;9.330;2023-07-29T13:23:41;1.90;;;1.80;;
2416;SDS011;1219;48.736;9.330;2023-07-29T13:26:07;1.70;;;1.60;;
2416;SDS011;1219;48.736;9.330;2023-07-29T13:28:33;1.70;;;1.60;;
2416;SDS011;1219;48.736;9.330;2023-07-29T13:30:59;1.90;;;1.80;;
2416;SDS011;1219;48.736;9.330;2023-07-29T13:33:25;3.40;;;2.27;;
2416;SDS011;1219;48.736;9.330;2023-07-29T13:35:51;2.20;;;1.50;;
2416;SDS011;1219;48.736;9.330;2023-07-29T13:38:17;1.80;;;1.50;;
2416;SDS011;1219;48.736;9.330;2023-07-29T13:40:44;2.10;;;2.00;;
2416;SDS011;1219;48.736;9.330;2023-07-29T13:43:10;1.50;;;1.40;;
2416;SDS011;1219;48.736;9.330;2023-07-29T13:45:36;1.93;;;1.33;;
2416;SDS011;1219;48.736;9.330;2023-07-29T13:48:02;2.77;;;1.50;;
2416;SDS011;1219;48.736;9.330;2023-07-29T13:50:28;1.67;;;1.57;;
2416;SDS011;1219;48.736;9.330;2023-07-29T13:52:54;2.00;;;1.90;;
2416;SDS011;1219;48.736;9.330;2023-07-29T13:55:20;2.83;;;1.80;;
2416;SDS011;1219;48.736;9.330;2023-07-29T13:57:46;1.80;;;1.70;;
2416;SDS011;1219;48.736;9.330;2023-07-29T14:00:13;1.90;;;1.73;;
2416;SDS011;1219;48.736;9.330;2023-07-29T14:02:39;1.60;;;1.50;;
2416;SDS011;1219;48.736;9.330;2023-07-29T14:05:05;1.47;;;1.37;;
2416;SDS011;1219;48.736;9.330;2023-07-29T14:07:32;1.60;;;1.50;;
2416;SDS011;1219;48.736;9.330;2023-07-29T14:09:58;1.67;;;1.57;;
2416;SDS011;1219;48.736;9.330;2023-07-29T14:12:24;1.90;;;1.73;;
2416;SDS011;1219;48.736;9.330;2023-07-29T14:14:49;2.03;;;1.83;;
2416;SDS011;1219;48.736;9.330;2023-07-29T14:17:15;1.70;;;1.60;;
2416;SDS011;1219;48.736;9.330;2023-07-29T14:19:41;2.00;;;1.80;;
2416;SDS011;1219;48.736;9.330;2023-07-29T14:22:07;1.60;;;1.50;;
2416;SDS011;1219;48.736;9.330;2023-07-29T14:24:33;2.60;;;2.40;;
2416;SDS011;1219;48.736;9.330;2023-07-29T14:26:59;2.53;;;2.33;;
2416;SDS011;1219;48.736;9.330;2023-07-29T14:29:25;2.20;;;1.90;;
2416;SDS011;1219;48.736;9.330;2023-07-29T14:31:51;1.90;;;1.80;;
2416;SDS011;1219;48.736;9.330;2023-07-29T14:34:17;1.60;;;1.50;;
2416;SDS011;1219;48.736;9.330;2023-07-29T14:36:43;1.87;;;1.70;;
2416;SDS011;1219;48.736;9.330;2023-07-29T14:39:09;1.90;;;1.80;;
2416;SDS011;1219;48.736;9.330;2023-07-29T14:41:35;1.70;;;1.57;;
2416;SDS011;1219;48.736;9.330;2023-07-29T14:44:01;1.70;;;1.60;;
2416;SDS011;1219;48.736;9.330;2023-07-29T14:46:27;1.57;;;1.47;;
2416;SDS011;1219;48.736;9.330;2023-07-29T14:48:53;2.03;;;1.83;;
2416;SDS011;1219;48.736;9.330;2023-07-29T14:51:19;2.03;;;1.77;;
2416;SDS011;1219;48.736;9.330;2023-07-29T14:53:45;1.60;;;1.50;;
2416;SDS011;1219;48.736;9.330;2023-07-29T14:56:11;1.60;;;1.50;;
2416;SDS011;1219;48.736;9.330;2023-07-29T14:58:38;2.07;;;1.60;;
2416;SDS011;1219;48.736;9.330;2023-07-29T15:01:04;1.60;;;1.50;;
2416;SDS011;1219;48.736;9.330;2023-07-29T15:03:30;2.00;;;1.90;;
2416;SDS011;1219;48.736;9.330;2023-07-29T15:05:56;2.23;;;1.73;;
2416;SDS011;1219;48.736;9.330;2023-07-29T15:08:24;1.60;;;1.50;;
2416;SDS011;1219;48.736;9.330;2023-07-29T15:10:50;1.70;;;1.40;;
2416;SDS011;1219;48.736;9.330;2023-07-29T15:13:16;2.30;;;1.70;;
2416;SDS011;1219;48.736;9.330;2023-07-29T15:15:42;2.47;;;2.27;;
2416;SDS011;1219;48.736;9.330;2023-07-29T15:18:08;1.80;;;1.50;;
2416;SDS011;1219;48.736;9.330;2023-07-29T15:20:34;1.87;;;1.77;;
2416;SDS011;1219;48.736;9.330;2023-07-29T15:23:00;1.60;;;1.50;;